sensor_id;sensor_type;location;lat;lon;timestamp;P1;durP1;ratioP1;P2;durP2;ratioP2
35612;SDS011;22054;51.646;7.078;2023-07-13T00:01:52;0.00;;;0.00;;
35612;SDS011;22054;51.646;7.078;2023-07-13T00:04:18;0.00;;;0.00;;
35612;SDS011;22054;51.646;7.078;2023-07-13T00:06:50;0.00;;;0.00;;
35612;SDS011;22054;51.646;7.078;2023-07-13T00:09:17;0.00;;;0.00;;
35612;SDS011;22054;51.646;7.078;2023-07-13T00:11:44;0.00;;;0.00;;
35612;SDS011;22054;51.646;7.078;2023-07-13T00:14:14;0.00;;;0.00;;
35612;SDS011;22054;51.646;7.078;2023-07-13T00:16:40;0.00;;;0.00;;
35612;SDS011;22054;51.646;7.078;2023-07-13T00:19:09;0.00;;;0.00;;
35612;SDS011;22054;51.646;7.078;2023-07-13T00:21:36;0.00;;;0.00;;
35612;SDS011;22054;51.646;7.078;2023-07-13T00:24:03;0.00;;;0.00;;
35612;SDS011;22054;51.646;7.078;2023-07-13T00:26:31;0.00;;;0.00;;
35612;SDS011;22054;51.646;7.078;2023-07-13T00:28:57;0.00;;;0.00;;
35612;SDS011;22054;51.646;7.078;2023-07-13T00:31:24;0.00;;;0.00;;
35612;SDS011;22054;51.646;7.078;2023-07-13T00:33:50;0.00;;;0.00;;
35612;SDS011;22054;51.646;7.078;2023-07-13T00:36:16;0.00;;;0.00;;
35612;SDS011;22054;51.646;7.078;2023-07-13T00:38:42;0.00;;;0.00;;
35612;SDS011;22054;51.646;7.078;2023-07-13T00:41:08;0.00;;;0.00;;
35612;SDS011;22054;51.646;7.078;2023-07-13T00:43:35;0.00;;;0.00;;
35612;SDS011;22054;51.646;7.078;2023-07-13T00:46:11;0.00;;;0.00;;
35612;SDS011;22054;51.646;7.078;2023-07-13T00:48:53;0.00;;;0.00;;
35612;SDS011;22054;51.646;7.078;2023-07-13T00:51:23;0.00;;;0.00;;
35612;SDS011;22054;51.646;7.078;2023-07-13T00:53:54;0.00;;;0.00;;
35612;SDS011;22054;51.646;7.078;2023-07-13T00:56:23;0.00;;;0.00;;
35612;SDS011;22054;51.646;7.078;2023-07-13T00:58:50;0.00;;;0.00;;
35612;SDS011;22054;51.646;7.078;2023-07-13T01:01:16;0.00;;;0.00;;
35612;SDS011;22054;51.646;7.078;2023-07-13T01:03:41;0.00;;;0.00;;
35612;SDS011;22054;51.646;7.078;2023-07-13T01:06:07;0.00;;;0.00;;
35612;SDS011;22054;51.646;7.078;2023-07-13T01:08:33;0.00;;;0.00;;
35612;SDS011;22054;51.646;7.078;2023-07-13T01:10:59;0.00;;;0.00;;
35612;SDS011;22054;51.646;7.078;2023-07-13T01:13:24;0.00;;;0.00;;
35612;SDS011;22054;51.646;7.078;2023-07-13T01:15:51;0.00;;;0.00;;
35612;SDS011;22054;51.646;7.078;2023-07-13T01:18:21;0.10;;;0.10;;
35612;SDS011;22054;51.646;7.078;2023-07-13T01:20:58;0.98;;;0.98;;
35612;SDS011;22054;51.646;7.078;2023-07-13T01:23:26;0.00;;;0.00;;
35612;SDS011;22054;51.646;7.078;2023-07-13T01:25:54;0.00;;;0.00;;
35612;SDS011;22054;51.646;7.078;2023-07-13T01:28:22;0.00;;;0.00;;
35612;SDS011;22054;51.646;7.078;2023-07-13T01:30:52;0.00;;;0.00;;
35612;SDS011;22054;51.646;7.078;2023-07-13T01:33:19;0.00;;;0.00;;
35612;SDS011;22054;51.646;7.078;2023-07-13T01:35:45;0.00;;;0.00;;
35612;SDS011;22054;51.646;7.078;2023-07-13T01:38:13;0.00;;;0.00;;
35612;SDS011;22054;51.646;7.078;2023-07-13T01:40:42;0.00;;;0.00;;
35612;SDS011;22054;51.646;7.078;2023-07-13T01:43:08;0.00;;;0.00;;
35612;SDS011;22054;51.646;7.078;2023-07-13T01:45:34;0.00;;;0.00;;
35612;SDS011;22054;51.646;7.078;2023-07-13T01:48:00;0.00;;;0.00;;
35612;SDS011;22054;51.646;7.078;2023-07-13T01:50:26;0.00;;;0.00;;
35612;SDS011;22054;51.646;7.078;2023-07-13T01:52:52;0.00;;;0.00;;
35612;SDS011;22054;51.646;7.078;2023-07-13T01:55:18;0.00;;;0.00;;
35612;SDS011;22054;51.646;7.078;2023-07-13T01:57:45;0.00;;;0.00;;
35612;SDS011;22054;51.646;7.078;2023-07-13T02:00:12;0.00;;;0.00;;
35612;SDS011;22054;51.646;7.078;2023-07-13T02:02:38;0.00;;;0.00;;
35612;SDS011;22054;51.646;7.078;2023-07-13T02:05:04;0.00;;;0.00;;
35612;SDS011;22054;51.646;7.078;2023-07-13T02:07:31;0.00;;;0.00;;
35612;SDS011;22054;51.646;7.078;2023-07-13T02:09:57;0.00;;;0.00;;
35612;SDS011;22054;51.646;7.078;2023-07-13T02:12:23;0.00;;;0.00;;
35612;SDS011;22054;51.646;7.078;2023-07-13T02:14:49;0.00;;;0.00;;
35612;SDS011;22054;51.646;7.078;2023-07-13T02:17:15;0.00;;;0.00;;
35612;SDS011;22054;51.646;7.078;2023-07-13T02:19:40;0.00;;;0.00;;
35612;SDS011;22054;51.646;7.078;2023-07-13T02:22:06;0.00;;;0.00;;
35612;SDS011;22054;51.646;7.078;2023-07-13T02:24:32;0.00;;;0.00;;
35612;SDS011;22054;51.646;7.078;2023-07-13T02:26:58;0.00;;;0.00;;
35612;SDS011;22054;51.646;7.078;2023-07-13T02:29:23;0.00;;;0.00;;
35612;SDS011;22054;51.646;7.078;2023-07-13T02:31:49;0.00;;;0.00;;
35612;SDS011;22054;51.646;7.078;2023-07-13T02:34:15;0.00;;;0.00;;
35612;SDS011;22054;51.646;7.078;2023-07-13T02:36:41;0.00;;;0.00;;
35612;SDS011;22054;51.646;7.078;2023-07-13T02:39:11;0.00;;;0.00;;
35612;SDS011;22054;51.646;7.078;2023-07-13T02:41:38;0.00;;;0.00;;
35612;SDS011;22054;51.646;7.078;2023-07-13T02:44:04;0.00;;;0.00;;
35612;SDS011;22054;51.646;7.078;2023-07-13T02:46:33;0.00;;;0.00;;
35612;SDS011;22054;51.646;7.078;2023-07-13T02:49:01;0.00;;;0.00;;
35612;SDS011;22054;51.646;7.078;2023-07-13T02:51:28;0.00;;;0.00;;
35612;SDS011;22054;51.646;7.078;2023-07-13T02:53:54;0.00;;;0.00;;
35612;SDS011;22054;51.646;7.078;2023-07-13T02:56:23;0.00;;;0.00;;
35612;SDS011;22054;51.646;7.078;2023-07-13T02:58:51;0.00;;;0.00;;
35612;SDS011;22054;51.646;7.078;2023-07-13T03:01:17;0.00;;;0.00;;
35612;SDS011;22054;51.646;7.078;2023-07-13T03:03:44;0.00;;;0.00;;
35612;SDS011;22054;51.646;7.078;2023-07-13T03:06:11;0.00;;;0.00;;
35612;SDS011;22054;51.646;7.078;2023-07-13T03:08:39;0.00;;;0.00;;
35612;SDS011;22054;51.646;7.078;2023-07-13T03:11:06;0.00;;;0.00;;
35612;SDS011;22054;51.646;7.078;2023-07-13T03:13:36;0.00;;;0.00;;
35612;SDS011;22054;51.646;7.078;2023-07-13T03:16:02;0.00;;;0.00;;
35612;SDS011;22054;51.646;7.078;2023-07-13T03:18:29;0.00;;;0.00;;
35612;SDS011;22054;51.646;7.078;2023-07-13T03:20:55;0.00;;;0.00;;
35612;SDS011;22054;51.646;7.078;2023-07-13T03:23:21;0.00;;;0.00;;
35612;SDS011;22054;51.646;7.078;2023-07-13T03:25:48;0.00;;;0.00;;
35612;SDS011;22054;51.646;7.078;2023-07-13T03:28:14;0.00;;;0.00;;
35612;SDS011;22054;51.646;7.078;2023-07-13T03:30:41;0.00;;;0.00;;
35612;SDS011;22054;51.646;7.078;2023-07-13T03:33:07;1.30;;;1.30;;
35612;SDS011;22054;51.646;7.078;2023-07-13T03:35:33;0.00;;;0.00;;
35612;SDS011;22054;51.646;7.078;2023-07-13T03:38:00;0.00;;;0.00;;
35612;SDS011;22054;51.646;7.078;2023-07-13T03:40:27;0.00;;;0.00;;
35612;SDS011;22054;51.646;7.078;2023-07-13T03:42:53;0.00;;;0.00;;
35612;SDS011;22054;51.646;7.078;2023-07-13T03:45:19;0.00;;;0.00;;
35612;SDS011;22054;51.646;7.078;2023-07-13T03:47:45;0.00;;;0.00;;
35612;SDS011;22054;51.646;7.078;2023-07-13T03:50:10;0.00;;;0.00;;
35612;SDS011;22054;51.646;7.078;2023-07-13T03:52:36;0.00;;;0.00;;
35612;SDS011;22054;51.646;7.078;2023-07-13T03:55:02;0.00;;;0.00;;
35612;SDS011;22054;51.646;7.078;2023-07-13T03:57:28;0.00;;;0.00;;
35612;SDS011;22054;51.646;7.078;2023-07-13T03:59:54;0.00;;;0.00;;
35612;SDS011;22054;51.646;7.078;2023-07-13T04:02:20;1.40;;;1.40;;
35612;SDS011;22054;51.646;7.078;2023-07-13T04:04:46;1.25;;;1.25;;
35612;SDS011;22054;51.646;7.078;2023-07-13T04:07:12;1.40;;;1.40;;
35612;SDS011;22054;51.646;7.078;2023-07-13T04:09:38;1.33;;;1.33;;
35612;SDS011;22054;51.646;7.078;2023-07-13T04:12:03;1.10;;;1.10;;
35612;SDS011;22054;51.646;7.078;2023-07-13T04:14:30;1.10;;;1.10;;
35612;SDS011;22054;51.646;7.078;2023-07-13T04:16:56;0.80;;;0.80;;
35612;SDS011;22054;51.646;7.078;2023-07-13T04:19:23;0.80;;;0.80;;
35612;SDS011;22054;51.646;7.078;2023-07-13T04:21:48;1.02;;;1.02;;
35612;SDS011;22054;51.646;7.078;2023-07-13T04:24:14;0.50;;;0.50;;
35612;SDS011;22054;51.646;7.078;2023-07-13T04:26:40;2.80;;;2.70;;
35612;SDS011;22054;51.646;7.078;2023-07-13T04:29:06;4.60;;;4.40;;
35612;SDS011;22054;51.646;7.078;2023-07-13T04:31:32;7.03;;;6.72;;
35612;SDS011;22054;51.646;7.078;2023-07-13T04:33:58;3.10;;;3.00;;
35612;SDS011;22054;51.646;7.078;2023-07-13T04:36:25;8.07;;;7.78;;
35612;SDS011;22054;51.646;7.078;2023-07-13T04:38:54;7.55;;;7.25;;
35612;SDS011;22054;51.646;7.078;2023-07-13T04:41:20;7.95;;;7.65;;
35612;SDS011;22054;51.646;7.078;2023-07-13T04:43:47;7.40;;;7.10;;
35612;SDS011;22054;51.646;7.078;2023-07-13T04:46:14;7.63;;;7.32;;
35612;SDS011;22054;51.646;7.078;2023-07-13T04:51:08;7.78;;;7.47;;
35612;SDS011;22054;51.646;7.078;2023-07-13T04:53:34;8.38;;;8.07;;
35612;SDS011;22054;51.646;7.078;2023-07-13T04:56:01;8.23;;;7.93;;
35612;SDS011;22054;51.646;7.078;2023-07-13T04:58:28;8.43;;;8.13;;
35612;SDS011;22054;51.646;7.078;2023-07-13T05:00:59;7.50;;;7.20;;
35612;SDS011;22054;51.646;7.078;2023-07-13T05:03:26;7.53;;;7.22;;
35612;SDS011;22054;51.646;7.078;2023-07-13T05:05:55;7.80;;;7.50;;
35612;SDS011;22054;51.646;7.078;2023-07-13T05:08:26;7.80;;;7.50;;
35612;SDS011;22054;51.646;7.078;2023-07-13T05:10:52;8.38;;;8.07;;
35612;SDS011;22054;51.646;7.078;2023-07-13T05:13:18;8.02;;;7.72;;
35612;SDS011;22054;51.646;7.078;2023-07-13T05:15:44;8.60;;;8.30;;
35612;SDS011;22054;51.646;7.078;2023-07-13T05:18:10;8.60;;;8.30;;
35612;SDS011;22054;51.646;7.078;2023-07-13T05:20:36;8.35;;;8.05;;
35612;SDS011;22054;51.646;7.078;2023-07-13T05:23:01;8.38;;;8.07;;
35612;SDS011;22054;51.646;7.078;2023-07-13T05:25:28;8.57;;;8.27;;
35612;SDS011;22054;51.646;7.078;2023-07-13T05:27:54;8.77;;;8.48;;
35612;SDS011;22054;51.646;7.078;2023-07-13T05:30:19;8.32;;;8.02;;
35612;SDS011;22054;51.646;7.078;2023-07-13T05:32:45;8.57;;;8.27;;
35612;SDS011;22054;51.646;7.078;2023-07-13T05:35:11;8.25;;;7.95;;
35612;SDS011;22054;51.646;7.078;2023-07-13T05:37:37;8.93;;;8.63;;
35612;SDS011;22054;51.646;7.078;2023-07-13T05:40:03;8.52;;;8.23;;
35612;SDS011;22054;51.646;7.078;2023-07-13T05:42:29;9.27;;;8.88;;
35612;SDS011;22054;51.646;7.078;2023-07-13T05:44:56;8.93;;;8.63;;
35612;SDS011;22054;51.646;7.078;2023-07-13T05:47:22;8.38;;;8.07;;
35612;SDS011;22054;51.646;7.078;2023-07-13T05:49:48;8.77;;;8.48;;
35612;SDS011;22054;51.646;7.078;2023-07-13T05:52:13;8.73;;;8.43;;
35612;SDS011;22054;51.646;7.078;2023-07-13T05:54:39;9.48;;;9.07;;
35612;SDS011;22054;51.646;7.078;2023-07-13T05:57:05;8.93;;;8.63;;
35612;SDS011;22054;51.646;7.078;2023-07-13T05:59:31;8.90;;;8.60;;
35612;SDS011;22054;51.646;7.078;2023-07-13T06:01:56;9.50;;;9.10;;
35612;SDS011;22054;51.646;7.078;2023-07-13T06:04:22;8.65;;;8.35;;
35612;SDS011;22054;51.646;7.078;2023-07-13T06:06:48;8.40;;;8.10;;
35612;SDS011;22054;51.646;7.078;2023-07-13T06:09:14;7.97;;;7.68;;
35612;SDS011;22054;51.646;7.078;2023-07-13T06:11:39;7.90;;;7.60;;
35612;SDS011;22054;51.646;7.078;2023-07-13T06:14:05;8.00;;;7.70;;
35612;SDS011;22054;51.646;7.078;2023-07-13T06:16:31;8.20;;;7.90;;
35612;SDS011;22054;51.646;7.078;2023-07-13T06:18:57;8.13;;;7.82;;
35612;SDS011;22054;51.646;7.078;2023-07-13T06:21:23;8.63;;;8.32;;
35612;SDS011;22054;51.646;7.078;2023-07-13T06:23:50;8.55;;;8.25;;
35612;SDS011;22054;51.646;7.078;2023-07-13T06:26:18;8.65;;;8.35;;
35612;SDS011;22054;51.646;7.078;2023-07-13T06:28:46;8.18;;;7.88;;
35612;SDS011;22054;51.646;7.078;2023-07-13T06:31:12;8.18;;;7.88;;
35612;SDS011;22054;51.646;7.078;2023-07-13T06:33:39;8.25;;;7.95;;
35612;SDS011;22054;51.646;7.078;2023-07-13T06:36:05;8.60;;;8.30;;
35612;SDS011;22054;51.646;7.078;2023-07-13T06:38:32;7.75;;;7.45;;
35612;SDS011;22054;51.646;7.078;2023-07-13T06:40:58;8.02;;;7.72;;
35612;SDS011;22054;51.646;7.078;2023-07-13T06:43:24;7.47;;;7.18;;
35612;SDS011;22054;51.646;7.078;2023-07-13T06:45:51;7.70;;;7.40;;
35612;SDS011;22054;51.646;7.078;2023-07-13T06:48:20;8.00;;;7.70;;
35612;SDS011;22054;51.646;7.078;2023-07-13T06:50:46;7.47;;;7.18;;
35612;SDS011;22054;51.646;7.078;2023-07-13T06:53:13;7.50;;;7.20;;
35612;SDS011;22054;51.646;7.078;2023-07-13T06:55:39;7.57;;;7.28;;
35612;SDS011;22054;51.646;7.078;2023-07-13T06:58:05;6.90;;;6.60;;
35612;SDS011;22054;51.646;7.078;2023-07-13T07:00:32;7.15;;;6.85;;
35612;SDS011;22054;51.646;7.078;2023-07-13T07:02:57;7.03;;;6.72;;
35612;SDS011;22054;51.646;7.078;2023-07-13T07:05:23;7.20;;;6.90;;
35612;SDS011;22054;51.646;7.078;2023-07-13T07:07:49;7.63;;;7.32;;
35612;SDS011;22054;51.646;7.078;2023-07-13T07:10:16;8.13;;;7.82;;
35612;SDS011;22054;51.646;7.078;2023-07-13T07:12:43;7.70;;;7.40;;
35612;SDS011;22054;51.646;7.078;2023-07-13T07:15:09;7.32;;;7.03;;
35612;SDS011;22054;51.646;7.078;2023-07-13T07:17:35;7.25;;;6.95;;
35612;SDS011;22054;51.646;7.078;2023-07-13T07:20:01;7.45;;;7.15;;
35612;SDS011;22054;51.646;7.078;2023-07-13T07:22:28;7.60;;;7.30;;
35612;SDS011;22054;51.646;7.078;2023-07-13T07:24:55;7.55;;;7.25;;
35612;SDS011;22054;51.646;7.078;2023-07-13T07:27:22;7.18;;;6.88;;
35612;SDS011;22054;51.646;7.078;2023-07-13T07:29:48;7.63;;;7.32;;
35612;SDS011;22054;51.646;7.078;2023-07-13T07:32:14;7.18;;;6.88;;
35612;SDS011;22054;51.646;7.078;2023-07-13T07:34:40;6.88;;;6.57;;
35612;SDS011;22054;51.646;7.078;2023-07-13T07:37:06;7.68;;;7.38;;
35612;SDS011;22054;51.646;7.078;2023-07-13T07:39:31;7.72;;;7.43;;
35612;SDS011;22054;51.646;7.078;2023-07-13T07:41:58;7.38;;;7.07;;
35612;SDS011;22054;51.646;7.078;2023-07-13T07:44:24;7.38;;;7.07;;
35612;SDS011;22054;51.646;7.078;2023-07-13T07:46:52;7.53;;;7.22;;
35612;SDS011;22054;51.646;7.078;2023-07-13T07:49:17;7.20;;;6.90;;
35612;SDS011;22054;51.646;7.078;2023-07-13T07:51:43;7.20;;;6.90;;
35612;SDS011;22054;51.646;7.078;2023-07-13T07:54:09;7.00;;;6.70;;
35612;SDS011;22054;51.646;7.078;2023-07-13T07:56:35;7.32;;;7.03;;
35612;SDS011;22054;51.646;7.078;2023-07-13T07:59:01;7.70;;;7.40;;
35612;SDS011;22054;51.646;7.078;2023-07-13T08:01:27;6.20;;;6.00;;
35612;SDS011;22054;51.646;7.078;2023-07-13T08:03:52;6.15;;;5.95;;
35612;SDS011;22054;51.646;7.078;2023-07-13T08:06:18;6.30;;;6.10;;
35612;SDS011;22054;51.646;7.078;2023-07-13T08:08:45;6.07;;;5.88;;
35612;SDS011;22054;51.646;7.078;2023-07-13T08:11:11;6.10;;;5.90;;
35612;SDS011;22054;51.646;7.078;2023-07-13T08:13:42;6.07;;;5.88;;
35612;SDS011;22054;51.646;7.078;2023-07-13T08:16:08;6.22;;;6.03;;
35612;SDS011;22054;51.646;7.078;2023-07-13T08:18:34;5.47;;;5.28;;
35612;SDS011;22054;51.646;7.078;2023-07-13T08:21:06;5.88;;;5.68;;
35612;SDS011;22054;51.646;7.078;2023-07-13T08:23:34;5.60;;;5.40;;
35612;SDS011;22054;51.646;7.078;2023-07-13T08:26:00;5.57;;;5.38;;
35612;SDS011;22054;51.646;7.078;2023-07-13T08:28:28;6.00;;;5.80;;
35612;SDS011;22054;51.646;7.078;2023-07-13T08:30:54;5.93;;;5.72;;
35612;SDS011;22054;51.646;7.078;2023-07-13T08:33:20;5.40;;;5.20;;
35612;SDS011;22054;51.646;7.078;2023-07-13T08:35:50;5.30;;;5.10;;
35612;SDS011;22054;51.646;7.078;2023-07-13T08:38:17;5.60;;;5.40;;
35612;SDS011;22054;51.646;7.078;2023-07-13T08:40:43;5.15;;;4.95;;
35612;SDS011;22054;51.646;7.078;2023-07-13T08:43:16;5.57;;;5.38;;
35612;SDS011;22054;51.646;7.078;2023-07-13T08:45:59;5.55;;;5.35;;
35612;SDS011;22054;51.646;7.078;2023-07-13T08:48:47;5.32;;;5.13;;
35612;SDS011;22054;51.646;7.078;2023-07-13T08:57:40;6.18;;;5.97;;
35612;SDS011;22054;51.646;7.078;2023-07-13T09:00:15;6.07;;;5.88;;
35612;SDS011;22054;51.646;7.078;2023-07-13T09:02:52;6.50;;;6.30;;
35612;SDS011;22054;51.646;7.078;2023-07-13T09:05:40;5.80;;;5.60;;
35612;SDS011;22054;51.646;7.078;2023-07-13T09:11:19;0.00;;;0.00;;
35612;SDS011;22054;51.646;7.078;2023-07-13T09:17:20;0.00;;;0.00;;
35612;SDS011;22054;51.646;7.078;2023-07-13T09:20:19;0.00;;;0.00;;
35612;SDS011;22054;51.646;7.078;2023-07-13T09:23:00;0.00;;;0.00;;
35612;SDS011;22054;51.646;7.078;2023-07-13T09:25:32;0.00;;;0.00;;
35612;SDS011;22054;51.646;7.078;2023-07-13T09:28:20;0.00;;;0.00;;
35612;SDS011;22054;51.646;7.078;2023-07-13T09:33:28;0.00;;;0.00;;
35612;SDS011;22054;51.646;7.078;2023-07-13T09:35:56;0.00;;;0.00;;
35612;SDS011;22054;51.646;7.078;2023-07-13T09:38:24;0.00;;;0.00;;
35612;SDS011;22054;51.646;7.078;2023-07-13T09:41:17;0.00;;;0.00;;
35612;SDS011;22054;51.646;7.078;2023-07-13T09:44:12;0.00;;;0.00;;
35612;SDS011;22054;51.646;7.078;2023-07-13T09:46:44;0.00;;;0.00;;
35612;SDS011;22054;51.646;7.078;2023-07-13T09:49:17;0.00;;;0.00;;
35612;SDS011;22054;51.646;7.078;2023-07-13T09:51:43;0.00;;;0.00;;
35612;SDS011;22054;51.646;7.078;2023-07-13T09:54:23;0.00;;;0.00;;
35612;SDS011;22054;51.646;7.078;2023-07-13T09:57:01;0.00;;;0.00;;
35612;SDS011;22054;51.646;7.078;2023-07-13T09:59:46;0.00;;;0.00;;
35612;SDS011;22054;51.646;7.078;2023-07-13T10:04:59;0.00;;;0.00;;
35612;SDS011;22054;51.646;7.078;2023-07-13T10:07:29;0.00;;;0.00;;
35612;SDS011;22054;51.646;7.078;2023-07-13T10:09:59;0.00;;;0.00;;
35612;SDS011;22054;51.646;7.078;2023-07-13T10:12:28;0.00;;;0.00;;
35612;SDS011;22054;51.646;7.078;2023-07-13T10:14:58;0.00;;;0.00;;
35612;SDS011;22054;51.646;7.078;2023-07-13T10:17:27;0.00;;;0.00;;
35612;SDS011;22054;51.646;7.078;2023-07-13T10:20:01;0.00;;;0.00;;
35612;SDS011;22054;51.646;7.078;2023-07-13T10:25:18;0.00;;;0.00;;
35612;SDS011;22054;51.646;7.078;2023-07-13T10:27:48;0.00;;;0.00;;
35612;SDS011;22054;51.646;7.078;2023-07-13T10:30:24;0.00;;;0.00;;
35612;SDS011;22054;51.646;7.078;2023-07-13T10:33:01;0.00;;;0.00;;
35612;SDS011;22054;51.646;7.078;2023-07-13T10:35:29;0.00;;;0.00;;
35612;SDS011;22054;51.646;7.078;2023-07-13T10:38:07;0.00;;;0.00;;
35612;SDS011;22054;51.646;7.078;2023-07-13T10:40:42;0.00;;;0.00;;
35612;SDS011;22054;51.646;7.078;2023-07-13T10:43:43;0.00;;;0.00;;
35612;SDS011;22054;51.646;7.078;2023-07-13T10:46:15;0.00;;;0.00;;
35612;SDS011;22054;51.646;7.078;2023-07-13T10:48:44;0.00;;;0.00;;
35612;SDS011;22054;51.646;7.078;2023-07-13T10:51:16;0.00;;;0.00;;
35612;SDS011;22054;51.646;7.078;2023-07-13T10:53:47;0.00;;;0.00;;
35612;SDS011;22054;51.646;7.078;2023-07-13T10:56:46;0.00;;;0.00;;
35612;SDS011;22054;51.646;7.078;2023-07-13T10:59:24;0.00;;;0.00;;
35612;SDS011;22054;51.646;7.078;2023-07-13T11:02:10;0.00;;;0.00;;
35612;SDS011;22054;51.646;7.078;2023-07-13T11:08:19;0.00;;;0.00;;
35612;SDS011;22054;51.646;7.078;2023-07-13T11:10:58;0.00;;;0.00;;
35612;SDS011;22054;51.646;7.078;2023-07-13T11:14:14;0.00;;;0.00;;
35612;SDS011;22054;51.646;7.078;2023-07-13T11:16:34;0.00;;;0.00;;
35612;SDS011;22054;51.646;7.078;2023-07-13T11:27:41;8.45;;;8.15;;
35612;SDS011;22054;51.646;7.078;2023-07-13T11:30:25;0.00;;;0.00;;
35612;SDS011;22054;51.646;7.078;2023-07-13T11:33:19;0.00;;;0.00;;
35612;SDS011;22054;51.646;7.078;2023-07-13T11:38:37;6.55;;;6.32;;
35612;SDS011;22054;51.646;7.078;2023-07-13T11:41:19;6.00;;;5.80;;
35612;SDS011;22054;51.646;7.078;2023-07-13T11:44:13;6.25;;;6.05;;
35612;SDS011;22054;51.646;7.078;2023-07-13T11:49:23;5.40;;;5.20;;
35612;SDS011;22054;51.646;7.078;2023-07-13T11:52:01;6.45;;;6.25;;
35612;SDS011;22054;51.646;7.078;2023-07-13T11:54:31;5.88;;;5.68;;
35612;SDS011;22054;51.646;7.078;2023-07-13T11:59:54;5.88;;;5.68;;
35612;SDS011;22054;51.646;7.078;2023-07-13T12:02:25;6.18;;;5.97;;
35612;SDS011;22054;51.646;7.078;2023-07-13T12:04:57;6.55;;;6.32;;
35612;SDS011;22054;51.646;7.078;2023-07-13T12:07:25;6.20;;;6.00;;
35612;SDS011;22054;51.646;7.078;2023-07-13T12:10:29;6.43;;;6.22;;
35612;SDS011;22054;51.646;7.078;2023-07-13T12:13:05;6.40;;;6.20;;
35612;SDS011;22054;51.646;7.078;2023-07-13T12:25:55;6.68;;;6.38;;
35612;SDS011;22054;51.646;7.078;2023-07-13T12:31:00;6.35;;;6.15;;
35612;SDS011;22054;51.646;7.078;2023-07-13T12:33:29;5.90;;;5.70;;
35612;SDS011;22054;51.646;7.078;2023-07-13T12:35:57;5.83;;;5.63;;
35612;SDS011;22054;51.646;7.078;2023-07-13T12:38:27;6.10;;;5.90;;
35612;SDS011;22054;51.646;7.078;2023-07-13T12:40:55;6.00;;;5.80;;
35612;SDS011;22054;51.646;7.078;2023-07-13T12:43:22;6.30;;;6.10;;
35612;SDS011;22054;51.646;7.078;2023-07-13T12:45:59;6.10;;;5.90;;
35612;SDS011;22054;51.646;7.078;2023-07-13T12:48:41;5.65;;;5.45;;
35612;SDS011;22054;51.646;7.078;2023-07-13T12:51:13;5.80;;;5.60;;
35612;SDS011;22054;51.646;7.078;2023-07-13T12:53:47;5.60;;;5.40;;
35612;SDS011;22054;51.646;7.078;2023-07-13T12:56:19;5.57;;;5.38;;
35612;SDS011;22054;51.646;7.078;2023-07-13T12:58:48;5.43;;;5.22;;
35612;SDS011;22054;51.646;7.078;2023-07-13T13:01:20;5.30;;;5.10;;
35612;SDS011;22054;51.646;7.078;2023-07-13T13:04:01;5.20;;;5.00;;
35612;SDS011;22054;51.646;7.078;2023-07-13T13:06:40;0.43;;;0.43;;
35612;SDS011;22054;51.646;7.078;2023-07-13T13:09:16;0.43;;;0.43;;
35612;SDS011;22054;51.646;7.078;2023-07-13T13:11:45;3.53;;;3.40;;
35612;SDS011;22054;51.646;7.078;2023-07-13T13:14:10;4.10;;;3.90;;
35612;SDS011;22054;51.646;7.078;2023-07-13T13:16:43;0.00;;;0.00;;
35612;SDS011;22054;51.646;7.078;2023-07-13T13:19:16;0.00;;;0.00;;
35612;SDS011;22054;51.646;7.078;2023-07-13T13:21:46;0.00;;;0.00;;
35612;SDS011;22054;51.646;7.078;2023-07-13T13:24:16;2.50;;;2.40;;
35612;SDS011;22054;51.646;7.078;2023-07-13T13:26:45;0.00;;;0.00;;
35612;SDS011;22054;51.646;7.078;2023-07-13T13:29:22;0.00;;;0.00;;
35612;SDS011;22054;51.646;7.078;2023-07-13T13:31:50;0.15;;;0.15;;
35612;SDS011;22054;51.646;7.078;2023-07-13T13:34:21;1.05;;;1.05;;
35612;SDS011;22054;51.646;7.078;2023-07-13T13:36:52;7.85;;;7.47;;
35612;SDS011;22054;51.646;7.078;2023-07-13T13:39:21;0.00;;;0.00;;
35612;SDS011;22054;51.646;7.078;2023-07-13T13:49:42;0.10;;;0.10;;
35612;SDS011;22054;51.646;7.078;2023-07-13T13:52:08;3.80;;;3.70;;
35612;SDS011;22054;51.646;7.078;2023-07-13T13:54:35;10.68;;;10.27;;
35612;SDS011;22054;51.646;7.078;2023-07-13T13:57:01;0.00;;;0.00;;
35612;SDS011;22054;51.646;7.078;2023-07-13T13:59:50;0.00;;;0.00;;
35612;SDS011;22054;51.646;7.078;2023-07-13T14:02:45;0.00;;;0.00;;
35612;SDS011;22054;51.646;7.078;2023-07-13T14:05:15;0.00;;;0.00;;
35612;SDS011;22054;51.646;7.078;2023-07-13T14:07:52;0.00;;;0.00;;
35612;SDS011;22054;51.646;7.078;2023-07-13T14:13:13;0.50;;;0.50;;
35612;SDS011;22054;51.646;7.078;2023-07-13T14:15:54;0.30;;;0.30;;
35612;SDS011;22054;51.646;7.078;2023-07-13T14:18:20;1.55;;;1.55;;
35612;SDS011;22054;51.646;7.078;2023-07-13T14:20:46;5.10;;;4.85;;
35612;SDS011;22054;51.646;7.078;2023-07-13T14:23:14;0.00;;;0.00;;
35612;SDS011;22054;51.646;7.078;2023-07-13T14:25:53;0.00;;;0.00;;
35612;SDS011;22054;51.646;7.078;2023-07-13T14:28:23;0.00;;;0.00;;
35612;SDS011;22054;51.646;7.078;2023-07-13T14:30:52;0.00;;;0.00;;
35612;SDS011;22054;51.646;7.078;2023-07-13T14:33:19;0.00;;;0.00;;
35612;SDS011;22054;51.646;7.078;2023-07-13T14:35:45;0.00;;;0.00;;
35612;SDS011;22054;51.646;7.078;2023-07-13T14:38:13;0.00;;;0.00;;
35612;SDS011;22054;51.646;7.078;2023-07-13T14:40:42;0.00;;;0.00;;
35612;SDS011;22054;51.646;7.078;2023-07-13T14:43:11;0.00;;;0.00;;
35612;SDS011;22054;51.646;7.078;2023-07-13T14:45:40;0.00;;;0.00;;
35612;SDS011;22054;51.646;7.078;2023-07-13T14:48:20;0.00;;;0.00;;
35612;SDS011;22054;51.646;7.078;2023-07-13T14:50:58;0.00;;;0.00;;
35612;SDS011;22054;51.646;7.078;2023-07-13T14:53:27;0.00;;;0.00;;
35612;SDS011;22054;51.646;7.078;2023-07-13T14:55:53;0.00;;;0.00;;
35612;SDS011;22054;51.646;7.078;2023-07-13T14:58:19;0.00;;;0.00;;
35612;SDS011;22054;51.646;7.078;2023-07-13T15:00:47;15.65;;;14.85;;
35612;SDS011;22054;51.646;7.078;2023-07-13T15:03:20;5.50;;;5.30;;
35612;SDS011;22054;51.646;7.078;2023-07-13T15:05:48;7.95;;;7.65;;
35612;SDS011;22054;51.646;7.078;2023-07-13T15:08:14;8.00;;;7.70;;
35612;SDS011;22054;51.646;7.078;2023-07-13T15:10:40;7.95;;;7.65;;
35612;SDS011;22054;51.646;7.078;2023-07-13T15:13:17;7.60;;;7.30;;
35612;SDS011;22054;51.646;7.078;2023-07-13T15:15:51;7.70;;;7.40;;
35612;SDS011;22054;51.646;7.078;2023-07-13T15:18:23;7.68;;;7.38;;
35612;SDS011;22054;51.646;7.078;2023-07-13T15:20:50;6.90;;;6.60;;
35612;SDS011;22054;51.646;7.078;2023-07-13T15:23:21;6.53;;;6.30;;
35612;SDS011;22054;51.646;7.078;2023-07-13T15:25:51;6.05;;;5.85;;
35612;SDS011;22054;51.646;7.078;2023-07-13T15:28:17;6.28;;;6.07;;
35612;SDS011;22054;51.646;7.078;2023-07-13T15:35:46;6.30;;;6.10;;
35612;SDS011;22054;51.646;7.078;2023-07-13T15:38:14;6.03;;;5.82;;
35612;SDS011;22054;51.646;7.078;2023-07-13T15:40:45;6.10;;;5.90;;
35612;SDS011;22054;51.646;7.078;2023-07-13T15:43:12;0.00;;;0.00;;
35612;SDS011;22054;51.646;7.078;2023-07-13T15:45:39;0.00;;;0.00;;
35612;SDS011;22054;51.646;7.078;2023-07-13T15:51:02;9.27;;;8.88;;
35612;SDS011;22054;51.646;7.078;2023-07-13T15:53:35;8.65;;;8.30;;
35612;SDS011;22054;51.646;7.078;2023-07-13T15:56:26;0.00;;;0.00;;
35612;SDS011;22054;51.646;7.078;2023-07-13T15:58:54;0.00;;;0.00;;
35612;SDS011;22054;51.646;7.078;2023-07-13T16:01:22;0.00;;;0.00;;
35612;SDS011;22054;51.646;7.078;2023-07-13T16:04:11;0.00;;;0.00;;
35612;SDS011;22054;51.646;7.078;2023-07-13T16:06:39;0.00;;;0.00;;
35612;SDS011;22054;51.646;7.078;2023-07-13T16:09:09;0.00;;;0.00;;
35612;SDS011;22054;51.646;7.078;2023-07-13T16:11:45;0.00;;;0.00;;
35612;SDS011;22054;51.646;7.078;2023-07-13T16:14:12;0.00;;;0.00;;
35612;SDS011;22054;51.646;7.078;2023-07-13T16:16:40;0.00;;;0.00;;
35612;SDS011;22054;51.646;7.078;2023-07-13T16:19:07;0.00;;;0.00;;